Time;durP1;ratioP1;P1;durP2;ratioP2;P2;SDS_P1;SDS_P2;PMS_P1;PMS_P2;Temp;Humidity;BMP_temperature;BMP_pressure;BME280_temperature;BME280_humidity;BME280_pressure;Samples;Min_cycle;Max_cycle;Signal;HPM_P1;HPM_P2
2022/07/23 00:00:58;;;;;;;7.40;6.80;;;;;;;24.18;62.91;157588.91;5099948;28;20458;-82
2022/07/23 00:03:26;;;;;;;8.30;7.50;;;;;;;24.17;62.38;157586.25;5074241;28;20457;-82
2022/07/23 00:05:53;;;;;;;7.17;6.47;;;;;;;24.17;64.48;157585.00;5090549;28;20432;-82
2022/07/23 00:08:21;;;;;;;7.87;7.20;;;;;;;24.17;62.89;157585.00;5090519;28;21002;-82
2022/07/23 00:10:48;;;;;;;8.63;7.83;;;;;;;24.11;61.85;157570.59;5079254;28;20494;-82
2022/07/23 00:13:14;;;;;;;7.30;6.60;;;;;;;24.11;60.66;157570.59;5070113;28;20441;-82
2022/07/23 00:15:41;;;;;;;7.30;6.70;;;;;;;24.13;61.60;157575.81;5087114;28;20440;-82
2022/07/23 00:18:08;;;;;;;7.30;6.70;;;;;;;23.98;60.86;157536.56;5070819;28;20437;-82
2022/07/23 00:20:35;;;;;;;5.70;5.20;;;;;;;23.93;61.85;157523.47;5090229;28;20476;-83
2022/07/23 00:23:02;;;;;;;5.87;5.37;;;;;;;23.94;60.30;157526.06;5086549;28;20473;-82
2022/07/23 00:25:30;;;;;;;6.00;5.50;;;;;;;23.90;59.32;157515.63;5091461;28;20433;-82
2022/07/23 00:27:56;;;;;;;5.17;4.77;;;;;;;23.90;63.68;157515.63;5089507;28;20476;-82
2022/07/23 00:30:23;;;;;;;5.67;4.90;;;;;;;23.89;58.77;157511.69;5087858;28;20493;-82
2022/07/23 00:32:52;;;;;;;5.93;5.33;;;;;;;23.91;61.67;157518.22;5090270;28;20441;-83
2022/07/23 00:35:21;;;;;;;5.60;5.10;;;;;;;23.87;63.60;157506.47;5084187;28;20446;-82
2022/07/23 00:37:47;;;;;;;6.00;5.40;;;;;;;23.85;62.72;157501.25;5070708;28;20464;-84
2022/07/23 00:40:14;;;;;;;5.80;4.87;;;;;;;23.79;65.51;157485.53;5080304;28;20832;-82
2022/07/23 00:42:43;;;;;;;5.90;5.40;;;;;;;23.73;64.34;157471.16;5090973;28;20467;-82
2022/07/23 00:45:10;;;;;;;6.07;5.50;;;;;;;23.63;64.08;157445.03;5073487;28;20891;-82
2022/07/23 00:47:37;;;;;;;6.30;5.70;;;;;;;23.55;66.87;157425.41;5072444;28;20472;-82
2022/07/23 00:50:06;;;;;;;6.10;5.40;;;;;;;23.48;65.81;157405.81;5072130;28;20468;-84
2022/07/23 00:52:33;;;;;;;6.50;5.90;;;;;;;23.38;65.43;157380.97;5090248;28;21375;-82
2022/07/23 00:55:00;;;;;;;5.83;5.33;;;;;;;23.33;69.26;157366.53;5057191;28;20867;-82
2022/07/23 00:57:27;;;;;;;6.03;5.33;;;;;;;23.31;67.99;157361.31;5074723;28;20838;-83
2022/07/23 00:59:56;;;;;;;5.57;5.07;;;;;;;23.29;67.37;157356.09;5055905;28;20839;-82
2022/07/23 01:02:22;;;;;;;5.90;5.30;;;;;;;23.25;66.43;157346.94;5073217;28;20905;-82
2022/07/23 01:04:49;;;;;;;5.27;4.80;;;;;;;23.24;66.36;157343.03;5076539;28;20464;-82
2022/07/23 01:07:16;;;;;;;6.60;5.60;;;;;;;23.14;67.60;157318.16;5074964;28;20445;-82
2022/07/23 01:09:43;;;;;;;6.97;6.03;;;;;;;23.13;68.34;157315.59;5089845;28;20844;-82
2022/07/23 01:12:10;;;;;;;5.63;5.13;;;;;;;23.11;68.62;157309.06;5093654;28;20855;-82
2022/07/23 01:14:37;;;;;;;5.67;5.10;;;;;;;23.10;66.44;157307.72;5093287;28;20437;-82
2022/07/23 01:17:05;;;;;;;5.83;5.33;;;;;;;23.09;68.10;157303.84;5070974;28;20484;-82
2022/07/23 01:19:32;;;;;;;6.00;5.50;;;;;;;23.04;64.85;157293.34;5071976;28;20453;-82
2022/07/23 01:22:03;;;;;;;5.13;4.63;;;;;;;23.01;64.93;157284.19;5059595;28;20787;-82
2022/07/23 01:24:31;;;;;;;6.70;5.20;;;;;;;22.98;64.35;157276.41;5074567;28;20571;-82
2022/07/23 01:27:05;;;;;;;6.57;4.63;;;;;;;23.00;64.64;157282.94;5059218;28;20449;-82
2022/07/23 01:29:32;;;;;;;5.57;5.07;;;;;;;22.96;67.33;157272.44;5072819;28;20532;-82
2022/07/23 01:32:03;;;;;;;5.73;5.13;;;;;;;22.94;66.29;157267.25;5076425;28;20477;-82
2022/07/23 01:34:30;;;;;;;5.67;5.17;;;;;;;22.95;64.91;157269.81;5064632;28;20457;-82
2022/07/23 01:36:57;;;;;;;5.57;4.73;;;;;;;22.92;64.38;157260.69;5059236;28;20441;-82
2022/07/23 01:39:24;;;;;;;5.37;4.97;;;;;;;22.93;66.37;157263.28;5075658;28;20537;-82
2022/07/23 01:41:53;;;;;;;5.47;4.97;;;;;;;22.93;65.67;157264.59;5076041;28;20436;-82
2022/07/23 01:44:21;;;;;;;5.30;4.80;;;;;;;22.92;66.34;157262.03;5073919;28;20475;-82
2022/07/23 01:46:48;;;;;;;5.73;5.23;;;;;;;22.95;66.01;157269.81;5092642;28;20444;-82
2022/07/23 01:49:16;;;;;;;5.50;5.00;;;;;;;22.90;64.99;157255.50;5058659;28;20449;-82
2022/07/23 01:52:21;;;;;;;5.80;5.30;;;;;;;22.86;66.94;157245.00;5014602;28;20544;-82
2022/07/23 01:54:50;;;;;;;5.70;4.50;;;;;;;22.81;66.44;157231.94;5029927;28;20448;-82
2022/07/23 01:57:19;;;;;;;5.40;5.00;;;;;;;22.78;70.44;157225.41;5051294;28;20473;-82
2022/07/23 01:59:46;;;;;;;5.77;5.27;;;;;;;22.75;67.00;157217.56;5071976;28;20540;-82
2022/07/23 02:02:13;;;;;;;5.20;4.80;;;;;;;22.74;66.98;157214.94;5065756;28;20452;-83
2022/07/23 02:04:40;;;;;;;5.53;5.03;;;;;;;22.70;67.35;157204.50;5072229;28;20577;-82
2022/07/23 02:07:06;;;;;;;6.83;4.73;;;;;;;22.66;66.21;157194.09;5072846;28;20829;-82
2022/07/23 02:09:33;;;;;;;5.70;5.10;;;;;;;22.62;68.36;157183.56;5072542;28;20932;-82
2022/07/23 02:12:00;;;;;;;5.70;5.10;;;;;;;22.61;69.34;157179.66;5069117;28;20506;-82
2022/07/23 02:14:28;;;;;;;5.83;5.33;;;;;;;22.59;68.55;157174.41;5084052;28;20917;-82
2022/07/23 02:16:55;;;;;;;5.63;5.20;;;;;;;22.54;69.88;157162.66;5059092;28;20964;-82
2022/07/23 02:19:22;;;;;;;5.37;4.70;;;;;;;22.53;68.67;157160.03;5071263;28;20512;-82
2022/07/23 02:21:49;;;;;;;5.73;5.23;;;;;;;22.51;67.29;157154.81;5073220;28;20418;-82
2022/07/23 02:24:15;;;;;;;5.77;5.07;;;;;;;22.49;69.19;157149.59;5072996;28;20583;-82
2022/07/23 02:26:43;;;;;;;5.20;4.70;;;;;;;22.48;68.19;157145.69;5085337;28;20446;-82
2022/07/23 02:29:09;;;;;;;5.13;4.70;;;;;;;22.45;70.34;157139.16;5061538;28;20784;-82
2022/07/23 02:31:37;;;;;;;5.50;5.00;;;;;;;22.41;70.88;157130.00;5071452;28;20932;-82
2022/07/23 02:34:05;;;;;;;8.70;5.23;;;;;;;22.37;70.71;157118.28;5088299;28;20438;-82
2022/07/23 02:36:32;;;;;;;5.13;4.73;;;;;;;22.29;69.73;157097.38;5084594;28;20445;-82
2022/07/23 02:38:59;;;;;;;6.60;5.33;;;;;;;22.28;70.89;157094.75;5054518;28;20453;-83
2022/07/23 02:41:27;;;;;;;5.40;4.90;;;;;;;22.25;72.75;157086.91;5071173;28;20442;-82
2022/07/23 02:43:54;;;;;;;6.30;5.70;;;;;;;22.20;72.20;157075.16;5084789;28;20470;-82
2022/07/23 02:46:22;;;;;;;5.43;5.00;;;;;;;22.20;71.31;157073.84;5068708;28;20441;-82
2022/07/23 02:48:50;;;;;;;6.30;5.70;;;;;;;22.20;71.42;157073.84;5054634;28;20551;-82
2022/07/23 02:51:17;;;;;;;6.30;5.80;;;;;;;22.19;72.33;157071.22;5071046;28;20535;-82
2022/07/23 02:53:51;;;;;;;6.07;5.57;;;;;;;22.14;73.28;157058.16;5050676;28;20577;-82
2022/07/23 02:56:18;;;;;;;5.80;5.30;;;;;;;22.13;71.95;157056.88;5070820;28;20928;-82
2022/07/23 02:58:44;;;;;;;6.60;5.90;;;;;;;22.14;72.31;157058.16;5087107;28;20472;-82
2022/07/23 03:01:11;;;;;;;6.20;5.67;;;;;;;22.14;71.83;157059.47;5088514;28;20498;-82
2022/07/23 03:03:38;;;;;;;6.03;5.53;;;;;;;22.14;73.40;157058.16;5067685;28;21040;-82
2022/07/23 03:06:07;;;;;;;6.03;5.50;;;;;;;22.14;72.01;157059.47;5059596;28;20476;-82
2022/07/23 03:08:35;;;;;;;6.70;6.10;;;;;;;22.15;71.04;157060.78;5074058;28;20455;-81
2022/07/23 03:11:01;;;;;;;6.30;5.70;;;;;;;22.12;72.20;157054.25;5102235;28;20504;-82
2022/07/23 03:13:29;;;;;;;6.13;5.53;;;;;;;22.09;71.51;157045.09;5082446;28;20493;-82
2022/07/23 03:15:56;;;;;;;6.47;5.87;;;;;;;22.10;71.36;157049.06;5067593;28;20441;-82
2022/07/23 03:18:23;;;;;;;6.40;5.87;;;;;;;22.10;70.63;157047.72;5084631;28;20429;-81
2022/07/23 03:20:49;;;;;;;7.23;5.53;;;;;;;22.08;71.38;157043.78;5072788;28;20527;-82
2022/07/23 03:23:18;;;;;;;6.30;5.70;;;;;;;22.10;72.33;157047.72;5073713;28;20433;-82
2022/07/23 03:25:46;;;;;;;6.63;6.03;;;;;;;22.05;71.97;157034.69;5090956;28;20441;-82
2022/07/23 03:28:13;;;;;;;6.57;5.97;;;;;;;22.02;71.79;157026.84;5087398;28;20469;-82
2022/07/23 03:30:40;;;;;;;6.23;5.73;;;;;;;22.01;71.39;157024.22;5078159;28;20867;-81
2022/07/23 03:33:06;;;;;;;5.80;5.30;;;;;;;22.00;71.79;157022.88;5074120;28;20433;-83
2022/07/23 03:35:34;;;;;;;6.50;5.97;;;;;;;22.00;71.68;157021.63;5073550;28;20465;-82
2022/07/23 03:38:20;;;;;;;6.00;5.50;;;;;;;21.98;72.00;157016.38;5073541;28;20429;-82
2022/07/23 03:40:47;;;;;;;7.03;6.43;;;;;;;21.97;71.50;157013.78;5055051;28;20456;-81
2022/07/23 03:43:13;;;;;;;6.43;5.63;;;;;;;21.94;73.43;157007.25;5090673;28;20429;-81
2022/07/23 03:45:40;;;;;;;7.47;6.47;;;;;;;21.92;73.01;157000.72;5073427;28;20528;-81
2022/07/23 03:48:07;;;;;;;6.70;6.10;;;;;;;21.88;74.92;156991.56;5090525;28;20864;-81
2022/07/23 03:50:35;;;;;;;7.00;6.30;;;;;;;21.81;76.17;156974.56;5072155;28;20449;-81
2022/07/23 03:53:02;;;;;;;7.60;6.60;;;;;;;21.78;75.80;156966.75;5088433;28;20445;-81
2022/07/23 03:55:31;;;;;;;6.57;5.97;;;;;;;21.74;74.84;156954.94;5057062;28;20851;-81
2022/07/23 03:57:57;;;;;;;6.00;5.40;;;;;;;21.71;74.15;156947.16;5069715;28;20568;-81
2022/07/23 04:00:24;;;;;;;6.13;5.63;;;;;;;21.69;75.75;156941.91;5088235;28;20911;-81
2022/07/23 04:02:51;;;;;;;7.67;6.50;;;;;;;21.65;74.25;156932.78;5073610;28;20534;-82
2022/07/23 04:05:18;;;;;;;7.23;6.53;;;;;;;21.65;76.12;156932.78;5086505;28;20523;-82
2022/07/23 04:07:49;;;;;;;6.50;5.90;;;;;;;21.64;74.69;156930.16;5067070;28;20464;-82
2022/07/23 04:10:15;;;;;;;7.13;6.43;;;;;;;21.67;74.88;156938.00;5072801;28;20453;-83
2022/07/23 04:12:44;;;;;;;6.80;6.20;;;;;;;21.68;76.01;156939.31;5070142;28;20441;-81
2022/07/23 04:15:11;;;;;;;6.60;6.00;;;;;;;21.68;75.31;156940.59;5053564;28;20924;-81
2022/07/23 04:17:38;;;;;;;8.10;5.80;;;;;;;21.68;74.46;156940.59;5087494;28;20517;-81
2022/07/23 04:20:05;;;;;;;6.53;5.93;;;;;;;21.73;74.42;156952.38;5073347;28;20861;-81
2022/07/23 04:22:38;;;;;;;6.53;5.93;;;;;;;21.77;75.78;156964.09;5073398;28;20844;-81
2022/07/23 04:25:06;;;;;;;6.90;6.30;;;;;;;21.80;75.53;156971.94;5089037;28;20955;-81
2022/07/23 04:27:33;;;;;;;7.57;6.87;;;;;;;21.79;75.96;156969.31;5072753;28;20798;-81
2022/07/23 04:30:01;;;;;;;6.37;5.87;;;;;;;21.77;75.37;156964.09;5091187;28;20441;-81
2022/07/23 04:32:28;;;;;;;8.50;5.93;;;;;;;21.78;74.30;156966.75;5079276;28;20916;-81
2022/07/23 04:34:56;;;;;;;7.30;6.50;;;;;;;21.82;74.44;156977.16;5071229;28;20449;-82
2022/07/23 04:37:23;;;;;;;7.23;6.50;;;;;;;21.85;74.07;156983.69;5068095;28;20441;-81
2022/07/23 04:39:50;;;;;;;6.10;5.53;;;;;;;21.82;74.75;156977.16;5093648;28;20452;-81
2022/07/23 04:42:16;;;;;;;6.70;6.10;;;;;;;21.82;74.36;156975.84;5095157;28;20433;-81
2022/07/23 04:44:43;;;;;;;6.83;6.23;;;;;;;21.81;75.19;156974.56;5058866;28;20469;-81
2022/07/23 04:47:12;;;;;;;6.40;5.80;;;;;;;21.81;74.02;156973.25;5077017;28;20429;-81
2022/07/23 04:49:39;;;;;;;7.00;6.40;;;;;;;21.82;74.41;156977.16;5090287;28;20957;-81
2022/07/23 04:52:05;;;;;;;6.80;6.20;;;;;;;21.84;75.42;156981.09;5056057;28;21014;-81
2022/07/23 04:54:32;;;;;;;8.13;5.63;;;;;;;21.91;73.33;156998.09;5054309;28;20440;-81
2022/07/23 04:56:59;;;;;;;6.87;6.10;;;;;;;21.98;74.75;157016.38;5089699;28;20521;-81
2022/07/23 04:59:26;;;;;;;6.73;6.13;;;;;;;22.09;75.23;157046.41;5061307;28;20441;-81
2022/07/23 05:01:58;;;;;;;9.60;6.10;;;;;;;22.16;73.22;157063.41;5056140;28;20450;-81
2022/07/23 05:04:27;;;;;;;7.30;6.40;;;;;;;22.27;72.70;157092.13;5062704;28;20823;-81
2022/07/23 05:06:54;;;;;;;7.00;6.40;;;;;;;22.33;71.59;157109.13;5093204;28;20441;-81
2022/07/23 05:09:20;;;;;;;7.43;6.83;;;;;;;22.39;72.34;157124.81;5067681;28;20443;-81
2022/07/23 05:11:47;;;;;;;6.90;6.20;;;;;;;22.45;71.84;157140.44;5094169;28;20462;-75
2022/07/23 05:14:14;;;;;;;7.03;6.40;;;;;;;22.53;70.41;157158.75;5092345;28;20986;-75
2022/07/23 05:16:42;;;;;;;7.80;6.47;;;;;;;22.58;71.05;157173.13;5076208;28;20445;-75
2022/07/23 05:19:14;;;;;;;7.57;6.83;;;;;;;22.68;71.41;157197.97;5076309;28;20449;-75
2022/07/23 05:21:42;;;;;;;7.83;7.13;;;;;;;22.71;71.79;157205.84;5059507;28;20462;-75
2022/07/23 05:24:09;;;;;;;7.60;6.87;;;;;;;22.79;70.29;157228.06;5059560;28;20472;-75
2022/07/23 05:26:35;;;;;;;8.20;7.40;;;;;;;22.91;71.59;157258.06;5076183;28;20720;-76
2022/07/23 05:29:02;;;;;;;7.83;7.13;;;;;;;23.03;69.53;157290.72;5075631;28;20456;-75
2022/07/23 05:31:29;;;;;;;9.63;7.30;;;;;;;23.06;68.74;157296.00;5059317;28;20441;-75
2022/07/23 05:33:57;;;;;;;9.70;7.73;;;;;;;23.06;70.67;157297.25;5059114;28;20455;-75
2022/07/23 05:36:24;;;;;;;8.80;7.03;;;;;;;23.06;69.42;157296.00;5092848;28;20433;-75
2022/07/23 05:38:57;;;;;;;7.23;6.53;;;;;;;23.06;69.89;157296.00;5059249;28;20796;-75
2022/07/23 05:41:24;;;;;;;7.67;6.97;;;;;;;23.05;70.22;157294.69;5092803;28;20444;-75
2022/07/23 05:43:51;;;;;;;7.50;6.80;;;;;;;23.06;71.72;157296.00;5075499;28;20465;-75
2022/07/23 05:46:19;;;;;;;8.97;7.13;;;;;;;23.00;71.24;157282.94;5059165;28;20433;-75
2022/07/23 05:48:50;;;;;;;7.67;6.87;;;;;;;22.98;71.73;157277.66;5092436;28;20879;-75
2022/07/23 05:51:36;;;;;;;8.17;7.30;;;;;;;22.99;71.08;157280.28;5075938;28;20784;-75
2022/07/23 05:54:04;;;;;;;8.03;7.23;;;;;;;22.99;70.89;157280.28;5075989;28;20543;-75
2022/07/23 05:56:36;;;;;;;9.23;7.20;;;;;;;22.96;70.37;157272.44;5092247;28;20433;-75
2022/07/23 05:59:03;;;;;;;7.90;7.20;;;;;;;22.95;70.97;157268.56;5093108;28;20480;-75
2022/07/23 06:01:30;;;;;;;7.53;6.87;;;;;;;22.96;71.36;157272.44;5072524;28;20450;-75
2022/07/23 06:04:05;;;;;;;8.17;7.37;;;;;;;23.03;71.84;157290.72;5073399;28;20472;-75
2022/07/23 06:06:36;;;;;;;8.50;7.70;;;;;;;23.05;70.79;157294.69;5090844;28;20448;-75
2022/07/23 06:09:04;;;;;;;7.90;7.20;;;;;;;23.03;71.42;157290.72;5091423;28;20441;-75
2022/07/23 06:11:31;;;;;;;8.23;7.50;;;;;;;23.06;72.38;157296.00;5058354;28;20536;-75
2022/07/23 06:13:58;;;;;;;11.30;7.57;;;;;;;22.97;72.13;157273.75;5091125;28;20480;-75
2022/07/23 06:16:35;;;;;;;8.53;7.57;;;;;;;22.86;73.02;157246.31;5075319;28;20957;-77
2022/07/23 06:19:02;;;;;;;7.87;7.17;;;;;;;22.87;71.22;157248.97;5091844;28;20473;-77
2022/07/23 06:21:31;;;;;;;7.60;6.90;;;;;;;22.91;70.81;157259.38;5074975;28;20481;-77
2022/07/23 06:23:58;;;;;;;8.33;7.60;;;;;;;22.92;69.96;157260.69;5091878;28;20946;-77
2022/07/23 06:26:26;;;;;;;8.20;7.50;;;;;;;22.98;69.32;157277.66;5072596;28;20994;-77
2022/07/23 06:28:53;;;;;;;9.53;7.30;;;;;;;23.19;68.41;157329.97;5054066;28;20445;-75
2022/07/23 06:31:20;;;;;;;8.53;7.73;;;;;;;23.62;70.43;157442.38;5074378;28;21152;-75
2022/07/23 06:33:46;;;;;;;8.17;7.47;;;;;;;23.95;67.20;157527.38;5074374;28;20444;-75
2022/07/23 06:36:14;;;;;;;7.83;7.13;;;;;;;24.27;65.62;157609.81;5091846;28;20437;-75
2022/07/23 06:38:41;;;;;;;7.77;7.07;;;;;;;24.25;68.14;157605.91;5074602;28;20476;-75
2022/07/23 06:41:07;;;;;;;8.00;7.30;;;;;;;24.18;66.38;157588.91;5073605;28;20445;-75
2022/07/23 06:43:36;;;;;;;7.83;7.20;;;;;;;24.11;65.41;157569.28;5074373;28;20468;-75
2022/07/23 06:46:02;;;;;;;6.90;6.30;;;;;;;24.02;65.57;157547.00;5057995;28;20489;-75
2022/07/23 06:48:34;;;;;;;7.53;6.83;;;;;;;23.98;65.26;157536.56;5072728;28;20428;-75
2022/07/23 06:51:01;;;;;;;7.53;6.90;;;;;;;23.97;65.93;157533.91;5092461;28;20452;-75
2022/07/23 06:53:28;;;;;;;8.23;7.53;;;;;;;24.02;65.51;157547.00;5074237;28;20428;-75
2022/07/23 06:55:54;;;;;;;7.70;6.90;;;;;;;24.06;63.78;157557.47;5089278;28;20477;-75
2022/07/23 06:58:21;;;;;;;8.50;7.63;;;;;;;24.06;63.17;157556.16;5084341;28;20468;-75
2022/07/23 07:00:49;;;;;;;7.13;6.53;;;;;;;23.98;62.39;157535.25;5089056;28;20547;-76
2022/07/23 07:03:17;;;;;;;7.93;7.23;;;;;;;23.92;63.12;157519.53;5056650;28;20673;-75
2022/07/23 07:05:44;;;;;;;8.73;7.23;;;;;;;23.66;64.46;157451.56;5090908;28;20575;-75
2022/07/23 07:08:11;;;;;;;8.37;7.57;;;;;;;23.65;63.83;157450.25;5058452;28;20437;-75
2022/07/23 07:10:38;;;;;;;7.87;7.10;;;;;;;23.55;67.19;157424.09;5092766;28;20500;-75
2022/07/23 07:13:04;;;;;;;8.20;7.37;;;;;;;23.46;65.52;157400.56;5112382;28;20911;-75
2022/07/23 07:15:31;;;;;;;7.83;7.20;;;;;;;23.51;64.10;157414.94;5087012;28;20437;-75
2022/07/23 07:17:59;;;;;;;8.10;7.33;;;;;;;23.41;63.95;157387.50;5073487;28;20440;-75
2022/07/23 07:20:26;;;;;;;8.63;7.63;;;;;;;23.40;64.23;157386.22;5073547;28;20451;-75
2022/07/23 07:22:53;;;;;;;8.40;7.70;;;;;;;23.35;65.06;157371.78;5092205;28;20524;-75
2022/07/23 07:25:20;;;;;;;9.00;7.23;;;;;;;23.25;63.15;157345.63;5091934;28;20811;-75
2022/07/23 07:27:46;;;;;;;7.83;7.13;;;;;;;23.19;63.42;157331.28;5091977;28;20441;-75
2022/07/23 07:30:13;;;;;;;9.07;7.43;;;;;;;23.13;65.84;157314.28;5091491;28;20417;-75
2022/07/23 07:32:40;;;;;;;8.63;6.90;;;;;;;23.13;65.18;157314.28;5091957;28;20498;-75
2022/07/23 07:35:09;;;;;;;10.07;7.17;;;;;;;23.19;64.89;157329.97;5091741;28;20433;-75
2022/07/23 07:37:36;;;;;;;7.87;7.07;;;;;;;23.17;64.84;157326.00;5090775;28;20441;-75
2022/07/23 07:40:03;;;;;;;9.83;8.93;;;;;;;23.04;64.93;157293.34;5073418;28;20428;-75
2022/07/23 07:42:32;;;;;;;8.13;7.43;;;;;;;22.95;65.91;157268.56;5056838;28;20521;-75
2022/07/23 07:44:58;;;;;;;6.90;6.20;;;;;;;22.97;67.18;157275.09;5074022;28;20464;-75
2022/07/23 07:47:25;;;;;;;7.67;6.97;;;;;;;23.05;66.32;157294.69;5092566;28;20425;-75
2022/07/23 07:49:52;;;;;;;7.63;6.83;;;;;;;23.15;66.71;157320.81;5074482;28;20532;-75
2022/07/23 07:52:20;;;;;;;8.27;7.47;;;;;;;23.55;65.35;157424.09;5073781;28;20455;-75
2022/07/23 07:54:47;;;;;;;8.53;7.80;;;;;;;23.93;64.83;157523.47;5070651;28;20477;-75
2022/07/23 07:57:14;;;;;;;7.87;7.17;;;;;;;24.27;63.56;157611.13;5074162;28;20525;-75
2022/07/23 07:59:41;;;;;;;8.50;7.80;;;;;;;24.53;65.22;157677.81;5071471;28;20445;-75
2022/07/23 08:02:07;;;;;;;8.43;7.63;;;;;;;24.54;64.79;157680.47;5071597;28;20453;-75
2022/07/23 08:04:34;;;;;;;8.33;7.53;;;;;;;24.54;66.36;157680.47;5072990;28;20435;-76
2022/07/23 08:07:01;;;;;;;8.60;7.87;;;;;;;24.96;64.06;157790.41;5089721;28;20472;-76
2022/07/23 08:09:29;;;;;;;7.53;6.83;;;;;;;25.01;63.89;157802.16;5090687;28;20780;-76
2022/07/23 08:11:56;;;;;;;9.03;8.10;;;;;;;25.00;61.74;157799.53;5074321;28;20441;-76
2022/07/23 08:14:23;;;;;;;6.73;6.13;;;;;;;25.14;59.38;157836.19;5077230;28;20529;-83
2022/07/23 08:16:53;;;;;;;7.37;6.73;;;;;;;25.01;59.24;157803.47;5095754;28;20452;-83
2022/07/23 08:19:19;;;;;;;6.60;6.00;;;;;;;24.75;59.40;157735.41;5094559;28;20448;-82
2022/07/23 08:21:46;;;;;;;7.87;7.17;;;;;;;24.41;61.51;157647.72;5095002;28;20457;-82
2022/07/23 08:24:13;;;;;;;8.03;7.27;;;;;;;24.34;61.90;157628.13;5094549;28;20487;-83
2022/07/23 08:26:41;;;;;;;11.93;7.27;;;;;;;24.19;62.60;157591.53;5076953;28;20464;-83
2022/07/23 08:29:08;;;;;;;7.30;6.70;;;;;;;23.97;62.17;157533.91;5093971;28;20449;-83
2022/07/23 08:31:45;;;;;;;7.37;6.77;;;;;;;23.81;63.78;157492.06;5076685;28;20433;-85
2022/07/23 08:34:13;;;;;;;7.80;7.03;;;;;;;23.86;63.48;157505.16;5076691;28;20441;-83
2022/07/23 08:36:40;;;;;;;7.80;7.10;;;;;;;23.73;63.41;157471.16;5076814;28;20421;-83
2022/07/23 08:39:24;;;;;;;8.47;7.50;;;;;;;23.51;64.48;157413.69;5076665;28;20801;-85
2022/07/23 08:41:52;;;;;;;8.27;7.50;;;;;;;23.55;68.79;157425.41;5076654;28;20421;-83
2022/07/23 08:44:19;;;;;;;7.60;6.90;;;;;;;23.71;65.15;157465.94;5075555;28;20522;-83
2022/07/23 08:46:47;;;;;;;8.70;7.90;;;;;;;23.83;64.13;157497.28;5093436;28;20689;-83
2022/07/23 08:49:13;;;;;;;8.37;7.67;;;;;;;23.88;63.70;157510.38;5094983;28;20429;-83
2022/07/23 08:51:40;;;;;;;9.70;7.00;;;;;;;23.92;63.37;157520.84;5094704;28;20428;-83
2022/07/23 08:54:08;;;;;;;8.37;7.57;;;;;;;24.23;61.79;157601.97;5094737;28;20525;-83
2022/07/23 08:56:36;;;;;;;7.53;6.93;;;;;;;24.72;60.95;157728.88;5094996;28;20417;-83
2022/07/23 08:59:04;;;;;;;8.10;7.30;;;;;;;24.87;57.44;157766.84;5094502;28;20499;-83
2022/07/23 09:01:31;;;;;;;7.03;6.43;;;;;;;24.85;57.48;157760.28;5059796;28;20904;-83
2022/07/23 09:03:57;;;;;;;7.73;6.93;;;;;;;25.10;57.91;157827.00;5076854;28;20484;-83
2022/07/23 09:06:24;;;;;;;7.50;6.80;;;;;;;25.27;56.71;157871.53;5076791;28;20517;-83
2022/07/23 09:08:51;;;;;;;7.80;7.10;;;;;;;25.49;59.66;157927.84;5094647;28;20515;-83
2022/07/23 09:11:18;;;;;;;7.60;6.90;;;;;;;25.81;57.29;158011.63;5076457;28;20543;-83
2022/07/23 09:13:47;;;;;;;7.70;6.90;;;;;;;26.08;56.29;158080.97;5076986;28;20433;-83
2022/07/23 09:16:17;;;;;;;7.80;7.20;;;;;;;26.34;56.12;158147.84;5076642;28;20502;-83
2022/07/23 09:18:46;;;;;;;6.77;6.17;;;;;;;26.53;54.78;158198.91;5094655;28;20488;-83
2022/07/23 09:21:22;;;;;;;7.87;6.70;;;;;;;26.96;52.68;158308.97;5077512;28;20464;-84
2022/07/23 09:23:52;;;;;;;7.03;6.43;;;;;;;26.68;53.05;158236.91;5094012;28;20791;-83
2022/07/23 09:26:22;;;;;;;7.87;7.27;;;;;;;26.92;54.03;158298.53;5094822;28;20504;-83
2022/07/23 09:28:55;;;;;;;15.90;14.30;;;;;;;27.28;51.94;158392.84;5093877;28;20441;-83
2022/07/23 09:31:25;;;;;;;8.43;7.67;;;;;;;27.22;51.10;158375.81;5076030;28;20792;-83
2022/07/23 09:33:52;;;;;;;9.63;7.33;;;;;;;27.55;49.63;158463.66;5076180;28;20445;-83
2022/07/23 09:36:29;;;;;;;9.20;6.87;;;;;;;27.37;50.16;158416.44;5076417;28;20440;-83
2022/07/23 09:38:56;;;;;;;8.20;7.40;;;;;;;27.13;50.39;158353.53;5093947;28;20413;-83
2022/07/23 09:41:24;;;;;;;8.10;7.40;;;;;;;27.25;51.22;158383.66;5074015;28;20543;-83
2022/07/23 09:43:57;;;;;;;7.57;6.97;;;;;;;27.20;50.56;158371.88;5071663;28;20441;-83
2022/07/23 09:46:27;;;;;;;8.30;7.60;;;;;;;27.73;49.98;158509.53;5092198;28;20465;-84
2022/07/23 09:48:56;;;;;;;7.93;7.23;;;;;;;27.77;49.04;158521.31;5094267;28;20761;-84
2022/07/23 09:51:30;;;;;;;9.10;8.40;;;;;;;27.72;48.73;158508.19;5077011;28;20445;-83
2022/07/23 09:53:57;;;;;;;7.83;7.23;;;;;;;28.22;48.92;158638.03;5084996;28;20809;-83
2022/07/23 09:56:24;;;;;;;8.00;7.30;;;;;;;28.21;47.88;158635.44;5093546;28;20444;-83
2022/07/23 09:59:01;;;;;;;7.40;6.80;;;;;;;28.12;48.25;158610.50;5088883;28;20929;-83
2022/07/23 10:01:30;;;;;;;7.97;7.27;;;;;;;28.15;47.78;158619.69;5073233;28;20983;-83
2022/07/23 10:03:57;;;;;;;7.50;6.90;;;;;;;28.44;47.19;158693.09;5081630;28;20437;-83
2022/07/23 10:06:48;;;;;;;8.10;7.40;;;;;;;28.13;47.67;158613.13;5069803;28;20479;-84
2022/07/23 10:09:35;;;;;;;8.93;8.10;;;;;;;27.96;48.85;158568.53;5098527;28;20460;-83
2022/07/23 10:12:30;;;;;;;8.00;7.30;;;;;;;27.92;53.53;158558.03;5057845;28;20448;-83
2022/07/23 10:15:01;;;;;;;8.27;7.57;;;;;;;28.20;47.83;158632.78;5075468;28;20531;-83
2022/07/23 10:17:30;;;;;;;7.50;6.90;;;;;;;28.04;48.14;158589.56;5072785;28;20963;-83
2022/07/23 10:19:57;;;;;;;7.70;7.07;;;;;;;27.61;48.06;158479.41;5074239;28;20909;-83
2022/07/23 10:22:26;;;;;;;8.40;7.70;;;;;;;27.76;48.68;158518.72;5097048;28;20512;-83
2022/07/23 10:25:00;;;;;;;9.00;8.10;;;;;;;27.58;49.83;158471.53;5078152;28;20784;-83
2022/07/23 10:27:59;;;;;;;9.50;7.60;;;;;;;27.43;49.94;158432.19;5077468;28;20457;-83
2022/07/23 10:30:31;;;;;;;8.03;7.43;;;;;;;27.51;50.13;158453.16;5094214;28;20460;-84
2022/07/23 10:33:13;;;;;;;7.63;7.03;;;;;;;27.46;50.60;158440.06;5092744;28;20512;-83
2022/07/23 10:35:45;;;;;;;11.43;8.07;;;;;;;27.27;49.53;158388.94;5096155;28;20452;-83
2022/07/23 10:38:14;;;;;;;8.73;8.03;;;;;;;27.09;50.51;158343.03;5072826;28;20527;-84
2022/07/23 10:40:54;;;;;;;8.63;7.93;;;;;;;27.14;50.02;158357.44;5076321;28;20729;-83
2022/07/23 10:43:21;;;;;;;9.30;8.50;;;;;;;27.12;50.56;158352.22;5077788;28;20421;-83
2022/07/23 10:45:48;;;;;;;8.57;7.77;;;;;;;27.02;51.26;158324.72;5074222;28;20480;-83
2022/07/23 10:48:17;;;;;;;8.20;7.50;;;;;;;26.90;50.80;158294.56;5090659;28;20460;-83
2022/07/23 10:51:06;;;;;;;7.90;7.20;;;;;;;26.92;50.25;158299.84;5089850;28;20469;-83
2022/07/23 10:53:54;;;;;;;7.30;6.70;;;;;;;27.02;50.30;158326.03;5071831;28;20453;-83
2022/07/23 10:56:55;;;;;;;8.27;7.57;;;;;;;27.25;49.51;158383.66;5092277;28;20534;-84
2022/07/23 10:59:22;;;;;;;7.80;7.10;;;;;;;27.02;50.09;158326.03;5091964;28;20509;-84
2022/07/23 11:01:49;;;;;;;7.93;7.13;;;;;;;27.46;48.17;158440.06;5091254;28;21211;-83
2022/07/23 11:04:17;;;;;;;8.80;8.10;;;;;;;27.53;48.69;158457.13;5090253;28;20530;-84
2022/07/23 11:07:11;;;;;;;8.60;7.80;;;;;;;27.40;47.88;158424.38;5086926;28;20571;-83
2022/07/23 11:09:42;;;;;;;8.33;7.63;;;;;;;27.39;47.16;158420.34;5071362;28;20434;-83
2022/07/23 11:12:32;;;;;;;7.60;6.87;;;;;;;27.41;47.66;158426.94;5053458;28;20469;-83
2022/07/23 11:14:59;;;;;;;7.43;6.83;;;;;;;27.55;46.52;158463.66;5087668;28;20864;-84
2022/07/23 11:17:27;;;;;;;8.07;7.37;;;;;;;27.55;46.83;158463.66;5091608;28;20787;-83
2022/07/23 11:20:23;;;;;;;7.23;6.63;;;;;;;27.33;46.25;158405.94;5091432;28;20457;-83
2022/07/23 11:22:52;;;;;;;6.67;6.07;;;;;;;27.20;47.01;158371.88;5074092;28;20506;-83
2022/07/23 11:25:35;;;;;;;8.07;7.30;;;;;;;27.37;49.23;158416.44;5086926;28;20536;-83
2022/07/23 11:28:14;;;;;;;7.27;6.70;;;;;;;27.39;47.70;158421.69;5070509;28;20430;-84
2022/07/23 11:30:43;;;;;;;7.53;6.93;;;;;;;27.37;48.70;158416.44;5089812;28;20452;-83
2022/07/23 11:33:18;;;;;;;8.33;7.63;;;;;;;27.42;48.80;158428.28;5091140;28;20476;-83